Time;durP1;ratioP1;P1;durP2;ratioP2;P2;SDS_P1;SDS_P2;PMS_P1;PMS_P2;Temp;Humidity;BMP_temperature;BMP_pressure;BME280_temperature;BME280_humidity;BME280_pressure;Samples;Min_cycle;Max_cycle;Signal;HPM_P1;HPM_P2
2022/07/03 00:00:23;;;;;;;7.70;4.45;;;;;;;20.97;66.43;100726.47;5531576;32;34392;-67
2022/07/03 00:03:26;;;;;;;5.43;4.05;;;;;;;21.04;66.56;100729.09;5532119;32;34907;-67
2022/07/03 00:06:30;;;;;;;6.30;3.95;;;;;;;20.88;67.31;100730.53;5532062;32;34168;-67
2022/07/03 00:09:33;;;;;;;6.15;3.83;;;;;;;20.71;67.96;100722.25;5532495;32;34904;-67
2022/07/03 00:12:35;;;;;;;4.35;3.92;;;;;;;20.76;68.17;100721.56;5532128;32;35471;-67
2022/07/03 00:15:38;;;;;;;5.20;3.72;;;;;;;20.67;68.32;100721.03;5531347;32;34567;-67
2022/07/03 00:18:41;;;;;;;5.87;3.97;;;;;;;20.57;68.66;100715.37;5531968;32;34848;-67
2022/07/03 00:21:48;;;;;;;5.62;4.15;;;;;;;20.45;69.37;100717.16;5531955;32;34195;-67
2022/07/03 00:25:02;;;;;;;5.20;4.28;;;;;;;20.69;69.15;100710.84;5531285;32;33480;-67
2022/07/03 00:28:06;;;;;;;7.00;4.10;;;;;;;20.64;69.38;100712.59;5531174;32;34146;-67
2022/07/03 00:31:11;;;;;;;5.72;4.20;;;;;;;20.75;68.83;100715.34;5531710;32;34198;-67
2022/07/03 00:34:16;;;;;;;5.97;4.20;;;;;;;20.56;69.56;100712.91;5531913;32;34874;-67
2022/07/03 00:37:19;;;;;;;8.65;4.25;;;;;;;20.42;70.26;100712.22;5531221;32;32992;-67
2022/07/03 00:40:22;;;;;;;5.97;4.03;;;;;;;20.34;70.84;100705.25;5531917;32;34209;-67
2022/07/03 00:43:26;;;;;;;6.55;4.43;;;;;;;20.26;71.26;100708.22;5532175;32;34649;-67
2022/07/03 00:46:29;;;;;;;5.50;4.20;;;;;;;20.22;71.85;100707.00;5531845;32;34280;-67
2022/07/03 00:49:34;;;;;;;5.32;4.40;;;;;;;20.18;72.02;100704.97;5531788;32;34144;-67
2022/07/03 00:52:38;;;;;;;6.03;4.45;;;;;;;20.10;72.39;100700.69;5530984;32;35472;-67
2022/07/03 00:55:45;;;;;;;5.10;4.15;;;;;;;20.07;72.85;100697.63;5530918;32;34859;-67
2022/07/03 00:58:51;;;;;;;6.62;4.22;;;;;;;20.18;72.51;100713.06;5532037;32;34113;-67
2022/07/03 01:02:02;;;;;;;7.12;3.97;;;;;;;20.21;72.16;100699.97;5531792;32;34294;-67
2022/07/03 01:05:26;;;;;;;6.68;4.68;;;;;;;20.13;72.76;100700.25;5531547;32;34312;-67
2022/07/03 01:08:50;;;;;;;5.95;4.62;;;;;;;20.12;73.17;100700.47;5530986;32;34177;-67
2022/07/03 01:12:06;;;;;;;5.97;4.20;;;;;;;20.17;73.24;100696.06;5530870;32;34268;-67
2022/07/03 01:15:39;;;;;;;8.43;4.47;;;;;;;20.30;72.52;100695.97;5531156;32;34337;-67
2022/07/03 01:19:00;;;;;;;8.60;4.65;;;;;;;20.09;73.28;100700.94;5531732;32;34917;-67
2022/07/03 01:22:29;;;;;;;6.12;4.43;;;;;;;19.90;74.18;100692.78;5519985;32;33030;-67
2022/07/03 01:25:50;;;;;;;6.28;5.00;;;;;;;19.84;74.55;100691.00;5531425;32;34190;-67
2022/07/03 01:28:52;;;;;;;8.52;4.80;;;;;;;19.79;75.11;100688.16;5531813;32;34232;-67
2022/07/03 01:31:58;;;;;;;6.20;4.70;;;;;;;19.81;75.21;100685.22;5531452;32;34235;-67
2022/07/03 01:35:02;;;;;;;10.50;4.57;;;;;;;19.67;75.80;100678.31;5531716;32;34222;-67
2022/07/03 01:38:12;;;;;;;7.55;5.10;;;;;;;19.61;76.38;100681.88;5531395;32;34946;-67
2022/07/03 01:41:14;;;;;;;7.22;5.07;;;;;;;19.55;76.96;100685.44;5531345;32;35180;-67
2022/07/03 01:44:21;;;;;;;9.73;4.62;;;;;;;19.50;77.61;100678.03;5531641;32;34883;-67
2022/07/03 01:47:24;;;;;;;7.07;4.95;;;;;;;19.54;77.05;100671.16;5531363;32;35570;-67
2022/07/03 01:50:31;;;;;;;7.75;4.57;;;;;;;19.59;76.71;100676.72;5530275;32;33000;-67
2022/07/03 01:53:36;;;;;;;6.80;4.72;;;;;;;19.47;77.24;100675.75;5531297;32;34838;-67
2022/07/03 01:56:39;;;;;;;6.90;5.10;;;;;;;19.48;76.67;100669.34;5531308;32;34275;-67
2022/07/03 01:59:42;;;;;;;8.52;4.97;;;;;;;19.41;76.88;100671.25;5531240;32;34326;-67
2022/07/03 02:03:00;;;;;;;6.50;4.90;;;;;;;19.34;77.26;100679.34;5531123;32;34196;-67
2022/07/03 02:06:17;;;;;;;7.50;4.82;;;;;;;19.30;77.37;100683.53;5530567;32;35385;-67
2022/07/03 02:09:29;;;;;;;8.70;4.80;;;;;;;19.31;78.07;100682.50;5531145;32;34208;-67
2022/07/03 02:12:48;;;;;;;6.30;5.03;;;;;;;19.47;77.29;100681.16;5531416;32;34903;-67
2022/07/03 02:15:54;;;;;;;7.70;4.60;;;;;;;19.38;77.39;100677.87;5531063;32;34322;-67
2022/07/03 02:19:03;;;;;;;8.88;4.97;;;;;;;19.27;77.92;100680.41;5530920;32;34186;-67
2022/07/03 02:22:08;;;;;;;11.57;5.95;;;;;;;19.17;78.70;100678.22;5531081;32;34906;-67
2022/07/03 02:25:35;;;;;;;8.10;5.35;;;;;;;19.05;79.77;100674.56;5530966;32;34900;-67
2022/07/03 02:28:54;;;;;;;7.18;4.90;;;;;;;19.06;80.18;100669.00;5531335;32;34175;-67
2022/07/03 02:32:00;;;;;;;6.57;5.07;;;;;;;19.00;80.81;100679.78;5530939;32;34253;-67
2022/07/03 02:35:06;;;;;;;7.82;4.72;;;;;;;18.97;81.71;100678.34;5530849;32;34307;-67
2022/07/03 02:38:17;;;;;;;6.65;5.20;;;;;;;18.95;81.54;100675.03;5530740;32;34145;-67
2022/07/03 02:41:24;;;;;;;5.50;4.60;;;;;;;18.93;82.21;100670.91;5530765;32;34131;-67
2022/07/03 02:44:46;;;;;;;9.15;5.00;;;;;;;18.93;82.53;100677.09;5530693;32;34866;-67
2022/07/03 02:47:57;;;;;;;7.20;5.28;;;;;;;18.98;82.64;100679.16;5530652;32;34193;-67
2022/07/03 02:51:09;;;;;;;7.57;5.18;;;;;;;18.86;83.28;100683.56;5531029;32;34863;-67
2022/07/03 02:54:17;;;;;;;6.72;4.95;;;;;;;18.75;83.67;100682.38;5530586;32;34901;-67
2022/07/03 02:57:22;;;;;;;7.32;5.30;;;;;;;19.02;83.29;100689.28;5530514;32;35409;-67
2022/07/03 03:00:25;;;;;;;6.72;5.18;;;;;;;19.16;82.37;100690.03;5530579;32;34175;-67
2022/07/03 03:03:30;;;;;;;6.87;5.22;;;;;;;19.11;81.95;100684.47;5530795;32;34466;-67
2022/07/03 03:06:35;;;;;;;9.95;5.12;;;;;;;19.11;81.60;100692.53;5530248;32;35001;-66
2022/07/03 03:09:42;;;;;;;6.68;5.20;;;;;;;18.87;82.25;100685.22;5530742;32;34836;-67
2022/07/03 03:12:57;;;;;;;7.65;5.35;;;;;;;18.82;82.98;100685.03;5530653;32;34159;-67
2022/07/03 03:16:09;;;;;;;6.55;5.03;;;;;;;18.90;82.62;100693.69;5530464;32;35509;-67
2022/07/03 03:19:12;;;;;;;8.10;5.20;;;;;;;18.94;81.58;100686.84;5532841;32;34228;-66
2022/07/03 03:22:20;;;;;;;8.25;5.12;;;;;;;18.87;82.23;100687.91;5532536;32;34801;-67
2022/07/03 03:25:24;;;;;;;7.93;5.40;;;;;;;18.90;82.05;100696.38;5532494;32;34856;-67
2022/07/03 03:28:27;;;;;;;6.82;5.20;;;;;;;18.91;82.13;100697.19;5532559;32;34724;-67
2022/07/03 03:31:29;;;;;;;7.45;5.60;;;;;;;18.89;82.38;100708.16;5532476;32;35518;-67
2022/07/03 03:34:33;;;;;;;7.00;4.85;;;;;;;18.91;83.64;100697.19;5532809;32;34259;-67
2022/07/03 03:37:36;;;;;;;7.18;5.18;;;;;;;19.03;83.75;100692.78;5532470;32;35423;-67
2022/07/03 03:40:39;;;;;;;6.30;5.28;;;;;;;19.17;83.04;100698.94;5532426;32;34161;-67
2022/07/03 03:43:42;;;;;;;8.00;4.87;;;;;;;19.22;83.36;100685.66;5532427;32;34793;-67
2022/07/03 03:46:45;;;;;;;6.78;5.43;;;;;;;19.31;82.58;100687.87;5531480;32;35453;-67
2022/07/03 03:49:48;;;;;;;6.70;5.03;;;;;;;19.28;82.67;100688.28;5532609;32;34223;-67
2022/07/03 03:52:51;;;;;;;5.40;4.72;;;;;;;19.32;82.23;100681.44;5532379;32;34143;-67
2022/07/03 03:56:02;;;;;;;5.60;4.80;;;;;;;19.39;82.85;100682.22;5532275;32;34213;-67
2022/07/03 03:59:05;;;;;;;7.70;5.70;;;;;;;19.43;83.03;100678.03;5532334;32;34258;-67
2022/07/03 04:02:08;;;;;;;8.18;5.35;;;;;;;19.46;83.04;100674.13;5531566;32;33516;-67
2022/07/03 04:05:11;;;;;;;8.50;5.55;;;;;;;19.49;83.34;100681.75;5532257;32;34387;-67
2022/07/03 04:08:13;;;;;;;6.57;5.28;;;;;;;19.52;83.89;100674.06;5532276;32;34378;-67
2022/07/03 04:11:16;;;;;;;6.93;5.03;;;;;;;19.77;82.34;100684.84;5532141;32;35433;-67
2022/07/03 04:14:18;;;;;;;7.10;5.55;;;;;;;19.80;81.96;100697.84;5531317;32;34919;-67
2022/07/03 04:17:21;;;;;;;7.12;5.53;;;;;;;19.95;81.25;100703.72;5532013;32;34880;-67
2022/07/03 04:20:23;;;;;;;8.70;5.93;;;;;;;19.97;79.91;100692.75;5532166;32;34178;-67
2022/07/03 04:23:26;;;;;;;7.07;5.05;;;;;;;19.98;79.71;100697.09;5532026;32;34497;-67
2022/07/03 04:26:29;;;;;;;8.57;5.32;;;;;;;20.04;78.62;100704.28;5532007;32;34164;-67
2022/07/03 04:29:32;;;;;;;9.57;5.55;;;;;;;20.16;77.91;100707.06;5531449;32;34361;-67
2022/07/03 04:32:34;;;;;;;7.20;5.43;;;;;;;20.22;77.67;100711.56;5531922;32;34266;-67
2022/07/03 04:35:38;;;;;;;9.98;5.85;;;;;;;20.13;77.92;100705.66;5531966;32;34363;-67
2022/07/03 04:38:41;;;;;;;6.45;5.12;;;;;;;20.03;78.64;100699.94;5531921;32;34221;-67
2022/07/03 04:41:44;;;;;;;6.72;5.10;;;;;;;20.15;78.25;100682.00;5531896;32;34195;-67
2022/07/03 04:44:46;;;;;;;8.60;5.37;;;;;;;20.17;78.51;100679.91;5531757;32;34244;-67
2022/07/03 04:47:49;;;;;;;6.87;4.90;;;;;;;20.32;78.30;100683.09;5531786;32;34441;-67
2022/07/03 04:50:52;;;;;;;7.65;5.57;;;;;;;20.37;78.39;100687.81;5531783;32;35460;-67
2022/07/03 04:53:54;;;;;;;7.60;5.45;;;;;;;20.58;77.88;100697.31;5531751;32;34209;-67
2022/07/03 04:56:57;;;;;;;6.85;5.00;;;;;;;20.73;76.96;100690.47;5531693;32;34463;-67
2022/07/03 05:00:00;;;;;;;9.80;5.25;;;;;;;20.78;77.32;100687.94;5531675;32;34124;-67
2022/07/03 05:03:02;;;;;;;6.12;4.95;;;;;;;20.89;76.56;100683.66;5531260;32;34189;-67
2022/07/03 05:06:05;;;;;;;6.93;5.00;;;;;;;20.94;75.85;100677.56;5531308;32;34249;-67
2022/07/03 05:09:09;;;;;;;6.75;5.10;;;;;;;21.05;75.63;100680.31;5531884;32;34836;-66
2022/07/03 05:12:11;;;;;;;6.97;5.00;;;;;;;21.14;74.31;100675.44;5531556;32;34105;-67
2022/07/03 05:15:14;;;;;;;10.07;4.93;;;;;;;21.12;74.58;100675.62;5531671;32;34358;-66
2022/07/03 05:18:17;;;;;;;6.30;4.97;;;;;;;21.23;74.27;100665.97;5531074;32;34781;-66
2022/07/03 05:21:23;;;;;;;7.47;5.30;;;;;;;21.33;74.44;100668.13;5531501;32;34131;-67
2022/07/03 05:24:26;;;;;;;7.72;5.20;;;;;;;21.48;73.44;100673.91;5531461;32;34863;-67
2022/07/03 05:27:28;;;;;;;6.35;4.97;;;;;;;21.58;71.65;100671.47;5530650;32;34301;-67
2022/07/03 05:30:31;;;;;;;8.63;5.37;;;;;;;21.70;71.13;100661.47;5531401;32;34240;-67
2022/07/03 05:33:35;;;;;;;6.85;5.00;;;;;;;21.82;70.96;100662.31;5530609;32;34139;-67
2022/07/03 05:36:38;;;;;;;5.75;4.43;;;;;;;21.93;70.47;100664.22;5531466;32;34217;-66
2022/07/03 05:39:41;;;;;;;9.07;4.35;;;;;;;22.13;70.16;100669.25;5530786;32;34184;-66
2022/07/03 05:42:44;;;;;;;6.32;4.47;;;;;;;22.27;69.25;100667.16;5530702;32;33024;-66
2022/07/03 05:45:47;;;;;;;6.62;4.20;;;;;;;22.43;68.79;100663.69;5531019;32;34143;-68
2022/07/03 05:48:52;;;;;;;5.32;4.53;;;;;;;22.51;67.95;100669.53;5531041;32;34149;-68
2022/07/03 05:51:54;;;;;;;7.55;4.55;;;;;;;22.53;67.67;100672.00;5531505;32;34441;-68
2022/07/03 05:54:57;;;;;;;5.72;4.35;;;;;;;22.60;66.68;100674.59;5531215;32;34489;-67
2022/07/03 05:58:00;;;;;;;5.85;4.22;;;;;;;22.65;67.00;100667.41;5531179;32;34864;-68
2022/07/03 06:01:02;;;;;;;6.62;4.75;;;;;;;22.82;66.23;100668.31;5531166;32;34893;-68
2022/07/03 06:04:05;;;;;;;6.87;3.78;;;;;;;22.89;66.19;100673.59;5531441;32;34945;-68
2022/07/03 06:07:08;;;;;;;5.12;4.30;;;;;;;22.99;65.85;100676.50;5530909;32;35546;-68
2022/07/03 06:10:11;;;;;;;6.55;4.70;;;;;;;23.15;64.96;100678.41;5531070;32;34195;-68
2022/07/03 06:13:13;;;;;;;8.23;4.68;;;;;;;23.28;64.74;100675.41;5531083;32;34825;-68
2022/07/03 06:16:16;;;;;;;7.00;4.65;;;;;;;23.36;64.09;100682.28;5530996;32;35558;-68
2022/07/03 06:19:19;;;;;;;11.07;4.72;;;;;;;23.44;64.30;100675.66;5530843;32;34252;-68
2022/07/03 06:22:22;;;;;;;13.73;4.85;;;;;;;23.40;65.05;100675.31;5531226;32;34792;-67
2022/07/03 06:25:24;;;;;;;7.28;4.75;;;;;;;23.44;63.39;100687.31;5530162;32;34376;-68
2022/07/03 06:28:27;;;;;;;7.22;4.43;;;;;;;23.48;63.50;100685.78;5531054;32;34915;-68
2022/07/03 06:31:31;;;;;;;7.32;4.57;;;;;;;23.58;63.59;100685.13;5529905;32;32536;-67
2022/07/03 06:34:35;;;;;;;6.85;4.60;;;;;;;23.69;62.40;100698.59;5530766;32;34834;-67
2022/07/03 06:37:38;;;;;;;5.97;4.55;;;;;;;23.65;62.72;100685.78;5530096;32;34235;-67
2022/07/03 06:40:41;;;;;;;6.05;4.60;;;;;;;23.78;62.40;100686.28;5530635;32;34148;-68
2022/07/03 06:43:43;;;;;;;9.40;4.60;;;;;;;23.82;62.83;100682.00;5530608;32;34159;-68
2022/07/03 06:46:46;;;;;;;7.10;4.60;;;;;;;23.97;62.54;100680.59;5530654;32;34324;-68
2022/07/03 06:49:51;;;;;;;4.82;4.28;;;;;;;23.97;62.99;100676.00;5530260;32;34131;-68
2022/07/03 06:52:54;;;;;;;6.75;4.82;;;;;;;24.09;63.08;100684.03;5529337;32;35117;-67
2022/07/03 06:55:56;;;;;;;5.60;4.40;;;;;;;24.17;62.31;100679.03;5530536;32;34266;-68
2022/07/03 06:58:59;;;;;;;6.18;4.68;;;;;;;24.21;61.11;100682.88;5530122;32;34304;-68
2022/07/03 07:02:02;;;;;;;9.52;4.60;;;;;;;24.35;60.71;100666.28;5530405;32;34137;-67
2022/07/03 07:05:06;;;;;;;6.72;4.62;;;;;;;24.60;60.70;100669.28;5530489;32;34855;-68
2022/07/03 07:08:08;;;;;;;7.15;4.32;;;;;;;24.83;59.32;100668.22;5529279;32;34899;-68
2022/07/03 07:11:11;;;;;;;4.97;4.40;;;;;;;25.12;58.41;100663.38;5530104;32;34997;-68
2022/07/03 07:14:13;;;;;;;6.20;4.70;;;;;;;25.32;57.80;100655.44;5529494;32;34238;-67
2022/07/03 07:17:16;;;;;;;5.82;4.72;;;;;;;25.63;55.75;100657.34;5529252;32;35006;-67
2022/07/03 07:20:19;;;;;;;5.87;4.47;;;;;;;25.62;56.10;100655.69;5529911;32;35438;-67
2022/07/03 07:23:22;;;;;;;9.25;5.00;;;;;;;25.93;55.21;100652.12;5530056;32;35436;-68
2022/07/03 07:26:24;;;;;;;5.75;4.40;;;;;;;26.24;54.34;100652.31;5529812;32;34221;-68
2022/07/03 07:29:27;;;;;;;6.65;4.70;;;;;;;26.54;53.58;100648.91;5529815;32;34371;-67
2022/07/03 07:32:30;;;;;;;5.93;4.60;;;;;;;26.89;52.77;100653.69;5529829;32;34162;-68
2022/07/03 07:35:33;;;;;;;8.48;4.50;;;;;;;27.35;51.36;100649.12;5529823;32;34145;-68
2022/07/03 07:38:35;;;;;;;7.28;4.30;;;;;;;27.54;50.36;100647.53;5529543;32;34947;-68
2022/07/03 07:41:38;;;;;;;5.97;4.43;;;;;;;27.73;49.57;100645.88;5529390;32;34234;-68
2022/07/03 07:44:41;;;;;;;6.53;4.32;;;;;;;28.14;47.87;100657.53;5529341;32;35438;-68
2022/07/03 07:47:44;;;;;;;5.93;4.28;;;;;;;28.90;45.91;100663.50;5529718;32;34143;-68
2022/07/03 07:50:46;;;;;;;6.90;4.22;;;;;;;29.71;44.76;100664.88;5529294;32;34366;-69
2022/07/03 07:53:50;;;;;;;6.60;4.30;;;;;;;29.98;44.66;100658.88;5529375;32;34254;-68
2022/07/03 07:56:52;;;;;;;5.47;4.15;;;;;;;30.87;40.87;100663.56;5529302;32;34310;-68
2022/07/03 07:59:55;;;;;;;6.57;3.75;;;;;;;31.44;39.60;100673.41;5529197;32;34248;-68
2022/07/03 08:06:20;;;;;;;6.47;3.50;;;;;;;31.69;38.67;100663.16;5531704;32;34554;-67
2022/07/03 08:09:23;;;;;;;6.62;4.07;;;;;;;32.03;38.01;100665.53;5531661;32;34226;-68
2022/07/03 08:12:25;;;;;;;6.43;3.75;;;;;;;32.27;37.75;100668.94;5531973;32;34196;-68
2022/07/03 08:15:28;;;;;;;4.30;3.90;;;;;;;32.04;38.26;100669.91;5531996;32;34698;-68
2022/07/03 08:18:31;;;;;;;4.87;3.65;;;;;;;33.10;35.88;100665.78;5532064;32;34305;-68
2022/07/03 08:21:34;;;;;;;6.05;3.83;;;;;;;32.70;36.34;100664.78;5531520;32;34196;-69
2022/07/03 08:24:37;;;;;;;4.32;3.78;;;;;;;33.65;34.44;100667.50;5531472;32;34133;-69
2022/07/03 08:27:46;;;;;;;4.18;3.78;;;;;;;34.22;33.50;100665.75;5530511;32;34114;-69
2022/07/03 08:30:50;;;;;;;4.90;3.80;;;;;;;35.34;32.42;100657.66;5531478;32;35476;-68
2022/07/03 08:33:52;;;;;;;6.12;3.67;;;;;;;35.55;30.65;100662.16;5530783;32;34943;-69
2022/07/03 08:36:55;;;;;;;7.35;3.85;;;;;;;35.11;31.49;100655.03;5530965;32;32588;-69
2022/07/03 08:39:58;;;;;;;10.27;4.12;;;;;;;35.12;31.66;100655.84;5531055;32;34245;-69
2022/07/03 08:43:01;;;;;;;4.05;3.45;;;;;;;35.40;31.36;100664.63;5531486;32;34938;-69
2022/07/03 08:46:05;;;;;;;4.25;3.55;;;;;;;35.34;31.67;100655.72;5531574;32;34969;-69
2022/07/03 08:49:09;;;;;;;5.15;3.85;;;;;;;34.94;31.86;100654.25;5531670;32;34900;-69
2022/07/03 08:52:12;;;;;;;5.65;3.62;;;;;;;35.47;30.92;100645.62;5531518;32;34498;-69
2022/07/03 08:55:17;;;;;;;6.18;3.62;;;;;;;36.06;30.94;100644.66;5531775;32;35459;-69
2022/07/03 08:58:22;;;;;;;4.75;3.87;;;;;;;36.80;29.46;100646.06;5531101;32;34272;-69
2022/07/03 09:01:25;;;;;;;7.75;3.40;;;;;;;36.46;30.17;100650.63;5531749;32;34195;-69
2022/07/03 09:04:29;;;;;;;6.37;3.62;;;;;;;37.41;29.34;100652.72;5531449;32;34227;-69
2022/07/03 09:07:35;;;;;;;4.68;3.85;;;;;;;36.43;29.91;100650.50;5530510;32;32628;-69
2022/07/03 09:10:37;;;;;;;3.53;3.08;;;;;;;37.44;28.76;100643.72;5530748;32;33254;-69
2022/07/03 09:13:41;;;;;;;4.85;3.87;;;;;;;36.73;29.28;100638.31;5530581;32;34962;-69
2022/07/03 09:16:43;;;;;;;7.90;3.40;;;;;;;37.06;28.25;100640.31;5530567;32;33577;-69
2022/07/03 09:19:47;;;;;;;5.35;3.70;;;;;;;37.78;26.90;100642.56;5530946;32;34305;-69
2022/07/03 09:22:50;;;;;;;3.87;3.47;;;;;;;37.11;28.10;100629.06;5531273;32;34884;-69
2022/07/03 09:26:02;;;;;;;4.40;3.45;;;;;;;38.06;27.33;100628.88;5531223;32;34138;-68
2022/07/03 09:29:06;;;;;;;5.30;3.50;;;;;;;36.23;29.33;100623.63;5531109;32;34840;-69
2022/07/03 09:32:09;;;;;;;5.37;3.40;;;;;;;37.50;28.23;100619.41;5531303;32;34900;-68
2022/07/03 09:35:19;;;;;;;4.45;3.30;;;;;;;38.47;26.37;100616.78;5530948;32;34783;-68
2022/07/03 09:38:22;;;;;;;7.75;3.90;;;;;;;37.28;27.26;100620.59;5531586;32;34482;-69
2022/07/03 09:41:25;;;;;;;4.03;3.47;;;;;;;36.75;28.61;100622.19;5531213;32;33673;-69
2022/07/03 09:44:45;;;;;;;4.40;3.50;;;;;;;37.53;27.23;100616.78;5530086;32;34188;-69
2022/07/03 09:47:51;;;;;;;5.72;3.55;;;;;;;37.19;27.65;100598.56;5517672;32;34120;-69
2022/07/03 09:51:25;;;;;;;6.12;3.42;;;;;;;38.00;26.93;100602.59;5530798;32;34767;-69
2022/07/03 09:54:29;;;;;;;6.68;3.45;;;;;;;39.19;25.54;100590.78;5530909;32;34832;-68
2022/07/03 09:57:32;;;;;;;8.23;3.35;;;;;;;38.21;26.46;100600.47;5531082;32;34160;-68
2022/07/03 10:00:35;;;;;;;5.93;3.47;;;;;;;36.99;27.89;100588.31;5531089;32;34400;-68
2022/07/03 10:03:38;;;;;;;4.37;3.60;;;;;;;36.28;28.99;100580.06;5530986;32;34950;-68
2022/07/03 10:06:47;;;;;;;8.88;3.78;;;;;;;36.93;28.11;100584.97;5531007;32;34851;-68
2022/07/03 10:09:49;;;;;;;6.47;3.58;;;;;;;36.38;28.62;100579.66;5530918;32;34309;-69
2022/07/03 10:12:54;;;;;;;5.80;3.47;;;;;;;37.10;27.53;100580.44;5531042;32;35453;-68
2022/07/03 10:16:01;;;;;;;7.80;3.58;;;;;;;39.01;25.28;100583.94;5530887;32;34859;-69
2022/07/03 10:19:06;;;;;;;4.07;3.25;;;;;;;39.84;24.25;100577.44;5530270;32;32569;-69
2022/07/03 10:22:18;;;;;;;4.00;3.10;;;;;;;40.30;23.29;100581.34;5531064;32;34254;-68
2022/07/03 10:25:21;;;;;;;5.05;3.00;;;;;;;40.52;23.49;100583.44;5530016;32;33609;-68
2022/07/03 10:28:24;;;;;;;4.20;3.20;;;;;;;39.48;24.36;100559.06;5531192;32;34878;-68
2022/07/03 10:31:28;;;;;;;5.03;2.95;;;;;;;41.28;22.59;100564.31;5530970;32;34435;-69
2022/07/03 10:34:32;;;;;;;5.10;3.17;;;;;;;42.58;21.15;100560.03;5530433;32;34270;-68
2022/07/03 10:37:49;;;;;;;3.58;2.90;;;;;;;41.93;21.84;100554.72;5530693;32;34519;-69
2022/07/03 10:44:49;;;;;;;3.90;3.37;;;;;;;44.55;18.99;100549.06;5529515;32;34811;-69
2022/07/03 10:47:52;;;;;;;3.58;2.83;;;;;;;45.20;18.21;100548.09;5530877;32;34192;-68
2022/07/03 10:51:13;;;;;;;3.55;2.55;;;;;;;44.52;18.46;100541.47;5530488;32;34463;-70
2022/07/03 10:54:24;;;;;;;3.20;2.90;;;;;;;44.91;18.17;100527.63;5530458;32;34677;-69
2022/07/03 10:57:26;;;;;;;3.87;3.08;;;;;;;40.73;21.56;100533.00;5530247;32;34260;-69
2022/07/03 11:00:53;;;;;;;4.40;3.10;;;;;;;42.80;19.88;100530.41;5530453;32;34349;-69
2022/07/03 11:04:00;;;;;;;4.22;2.78;;;;;;;44.84;17.68;100524.78;5530274;32;34366;-68
2022/07/03 11:07:03;;;;;;;3.55;2.70;;;;;;;44.79;17.56;100530.78;5529468;32;32727;-69
2022/07/03 11:10:05;;;;;;;4.80;2.62;;;;;;;44.33;18.33;100521.38;5530056;32;34876;-69
2022/07/03 11:13:12;;;;;;;2.87;2.55;;;;;;;44.95;17.53;100516.41;5529153;32;34404;-69
2022/07/03 11:16:24;;;;;;;3.87;3.10;;;;;;;46.48;16.07;100517.91;5516995;32;34276;-68
2022/07/03 11:19:34;;;;;;;3.83;2.80;;;;;;;45.03;17.58;100509.66;5529235;32;34930;-69
2022/07/03 11:23:10;;;;;;;3.55;3.03;;;;;;;44.89;17.75;100515.19;5529979;32;34319;-69
2022/07/03 11:26:14;;;;;;;6.93;2.90;;;;;;;45.03;17.99;100504.03;5530268;32;34886;-68
2022/07/03 11:29:28;;;;;;;3.33;2.85;;;;;;;46.06;16.66;100502.00;5529773;32;35423;-69
2022/07/03 11:32:49;;;;;;;5.50;2.83;;;;;;;46.70;15.79;100490.56;5529944;32;34174;-69
2022/07/03 11:35:54;;;;;;;2.60;2.40;;;;;;;47.47;15.39;100496.84;5529876;32;34833;-69
2022/07/03 11:38:57;;;;;;;3.42;3.00;;;;;;;46.42;16.09;100485.88;5530954;32;34983;-69
2022/07/03 11:42:04;;;;;;;;;;;;;;;45.25;16.78;100483.28;5532636;32;34337;-69
2022/07/03 11:45:09;;;;;;;4.07;2.53;;;;;;;45.95;16.34;100476.00;5532423;32;34432;-69
2022/07/03 11:48:17;;;;;;;7.03;2.85;;;;;;;46.34;15.88;100472.25;5532532;32;34156;-69
2022/07/03 11:51:21;;;;;;;2.58;2.25;;;;;;;46.43;15.02;100469.84;5532170;32;34328;-69
2022/07/03 11:54:50;;;;;;;3.33;2.03;;;;;;;48.16;13.70;100465.59;5532168;32;34252;-69
2022/07/03 11:57:54;;;;;;;2.72;2.25;;;;;;;46.12;15.54;100452.72;5532173;32;34148;-69
2022/07/03 12:00:57;;;;;;;4.07;2.33;;;;;;;44.68;17.15;100464.78;5532230;32;34213;-68
2022/07/03 12:04:04;;;;;;;2.97;2.17;;;;;;;43.07;17.59;100452.94;5531797;32;34292;-69
2022/07/03 12:07:07;;;;;;;6.68;2.15;;;;;;;44.73;16.66;100458.78;5532123;32;34486;-69
2022/07/03 12:10:10;;;;;;;2.50;1.90;;;;;;;46.85;14.71;100449.12;5532066;32;34898;-69
2022/07/03 12:13:21;;;;;;;3.87;2.17;;;;;;;48.26;13.88;100450.59;5532537;32;34328;-69
2022/07/03 12:16:37;;;;;;;3.30;2.45;;;;;;;47.71;14.07;100442.41;5532122;32;35469;-69
2022/07/03 12:20:09;;;;;;;2.70;1.87;;;;;;;48.99;13.04;100444.34;5532306;32;34897;-69
2022/07/03 12:23:14;;;;;;;2.60;2.25;;;;;;;46.11;15.23;100433.47;5532112;32;34278;-69
2022/07/03 12:26:31;;;;;;;4.87;2.20;;;;;;;47.10;14.25;100427.31;5531395;32;34116;-69
2022/07/03 12:29:35;;;;;;;5.53;2.08;;;;;;;47.29;13.93;100418.31;5531251;32;34269;-69
2022/07/03 12:32:39;;;;;;;6.32;2.15;;;;;;;48.54;12.86;100407.19;5531855;32;34920;-69
2022/07/03 12:35:41;;;;;;;4.72;2.28;;;;;;;48.52;12.92;100401.19;5531068;32;33017;-67
2022/07/03 12:38:55;;;;;;;6.95;2.42;;;;;;;47.03;14.25;100399.28;5532062;32;34931;-67
2022/07/03 12:41:57;;;;;;;4.97;1.95;;;;;;;45.96;14.90;100396.28;5531657;32;34923;-68
2022/07/03 12:45:04;;;;;;;3.05;1.90;;;;;;;46.22;14.75;100403.41;5531814;32;35587;-68
2022/07/03 12:48:10;;;;;;;3.60;2.10;;;;;;;47.01;13.78;100402.47;5531050;32;33038;-68
2022/07/03 12:51:16;;;;;;;3.80;1.60;;;;;;;45.91;14.59;100401.50;5532095;32;34541;-67
2022/07/03 12:54:32;;;;;;;6.78;1.70;;;;;;;45.84;14.25;100394.75;5531679;32;34911;-68
2022/07/03 13:01:05;;;;;;;5.60;2.00;;;;;;;47.19;13.60;100385.47;5531617;32;34147;-69
2022/07/03 13:04:14;;;;;;;2.92;1.80;;;;;;;43.12;16.62;100374.44;5531813;32;34278;-69
2022/07/03 13:07:40;;;;;;;3.00;1.75;;;;;;;43.37;17.10;100380.22;5531612;32;34272;-69
2022/07/03 13:11:00;;;;;;;6.87;1.83;;;;;;;46.15;14.91;100376.19;5530804;32;34449;-70
2022/07/03 13:14:17;;;;;;;2.03;1.70;;;;;;;47.60;13.72;100379.84;5531563;32;34245;-69
2022/07/03 13:17:20;;;;;;;2.47;1.75;;;;;;;46.21;14.93;100376.56;5531916;32;34137;-69
2022/07/03 13:20:31;;;;;;;2.92;1.90;;;;;;;44.91;15.87;100367.22;5531441;32;34795;-69
2022/07/03 13:23:33;;;;;;;2.30;1.85;;;;;;;46.36;14.57;100363.22;5531319;32;34718;-69
2022/07/03 13:26:36;;;;;;;3.00;1.92;;;;;;;46.36;14.95;100374.47;5531370;32;34854;-67
2022/07/03 13:29:42;;;;;;;2.12;1.65;;;;;;;47.17;14.20;100371.03;5531251;32;34899;-67
2022/07/03 13:32:46;;;;;;;4.78;1.73;;;;;;;47.41;14.01;100367.19;5530741;32;34559;-67
2022/07/03 13:35:54;;;;;;;4.60;1.90;;;;;;;45.74;15.26;100361.91;5530782;32;34183;-67
2022/07/03 13:38:57;;;;;;;3.78;1.75;;;;;;;49.86;11.95;100369.06;5531097;32;34954;-67
2022/07/03 13:42:00;;;;;;;4.20;2.10;;;;;;;45.72;14.67;100347.47;5530708;32;34285;-68
2022/07/03 13:45:04;;;;;;;2.30;1.62;;;;;;;43.83;16.28;100344.12;5531421;32;34604;-68
2022/07/03 13:48:18;;;;;;;3.90;1.50;;;;;;;44.84;15.29;100348.41;5531254;32;34626;-68
2022/07/03 13:51:21;;;;;;;4.03;1.40;;;;;;;44.51;15.58;100352.37;5517677;32;34820;-68
2022/07/03 13:54:29;;;;;;;2.05;1.52;;;;;;;46.24;14.18;100345.66;5531545;32;35561;-68
2022/07/03 13:57:34;;;;;;;4.87;1.73;;;;;;;46.83;13.72;100342.84;5505941;32;33888;-68
2022/07/03 14:00:37;;;;;;;4.22;1.50;;;;;;;46.93;13.81;100341.19;5529611;32;34964;-67
2022/07/03 14:03:40;;;;;;;4.90;1.40;;;;;;;46.99;13.51;100336.72;5531038;32;34977;-67
2022/07/03 14:06:43;;;;;;;2.47;1.40;;;;;;;43.78;16.11;100334.12;5530150;32;34788;-68
2022/07/03 14:09:46;;;;;;;2.58;1.42;;;;;;;46.30;14.12;100342.41;5531328;32;34182;-68
2022/07/03 14:12:48;;;;;;;3.85;1.40;;;;;;;45.84;14.68;100338.66;5530808;32;34264;-68
2022/07/03 14:15:51;;;;;;;5.03;1.33;;;;;;;45.85;14.64;100339.44;5530947;32;34202;-68
2022/07/03 14:18:54;;;;;;;1.95;1.55;;;;;;;42.70;17.10;100342.16;5531237;32;34599;-68
2022/07/03 14:21:59;;;;;;;3.03;1.42;;;;;;;42.16;17.62;100337.22;5530799;32;34234;-68
2022/07/03 14:25:03;;;;;;;3.55;1.55;;;;;;;44.52;15.86;100345.59;5530106;32;34237;-69
2022/07/03 14:34:51;;;;;;;2.90;1.58;;;;;;;38.77;21.29;100334.38;5530725;32;34234;-68
2022/07/03 14:37:54;;;;;;;3.72;1.35;;;;;;;38.92;21.23;100328.06;5529864;32;33459;-68
2022/07/03 14:40:57;;;;;;;3.20;1.33;;;;;;;42.14;18.16;100327.59;5529945;32;34288;-69